sensor_id;sensor_type;location;lat;lon;timestamp;temperature;humidity
17619;DHT22;8928;51.678;6.074;2024-01-25T00:01:31;7.30;99.90
17619;DHT22;8928;51.678;6.074;2024-01-25T00:04:18;7.20;99.90
17619;DHT22;8928;51.678;6.074;2024-01-25T00:07:08;7.10;99.90
17619;DHT22;8928;51.678;6.074;2024-01-25T00:09:55;7.10;99.90
17619;DHT22;8928;51.678;6.074;2024-01-25T00:12:43;7.10;99.90
17619;DHT22;8928;51.678;6.074;2024-01-25T00:15:30;7.20;99.90
17619;DHT22;8928;51.678;6.074;2024-01-25T00:18:19;7.10;99.90
17619;DHT22;8928;51.678;6.074;2024-01-25T00:21:06;7.00;99.90
17619;DHT22;8928;51.678;6.074;2024-01-25T00:23:53;6.90;99.90
17619;DHT22;8928;51.678;6.074;2024-01-25T00:26:40;6.80;99.90
17619;DHT22;8928;51.678;6.074;2024-01-25T00:29:27;6.60;99.90
17619;DHT22;8928;51.678;6.074;2024-01-25T00:32:14;6.50;99.90
17619;DHT22;8928;51.678;6.074;2024-01-25T00:35:04;6.40;99.90
17619;DHT22;8928;51.678;6.074;2024-01-25T00:37:52;6.30;99.90
17619;DHT22;8928;51.678;6.074;2024-01-25T00:40:40;6.30;99.90
17619;DHT22;8928;51.678;6.074;2024-01-25T00:43:27;6.20;99.90
17619;DHT22;8928;51.678;6.074;2024-01-25T00:46:15;6.00;99.90
17619;DHT22;8928;51.678;6.074;2024-01-25T00:49:02;5.90;99.90
17619;DHT22;8928;51.678;6.074;2024-01-25T00:51:58;5.70;99.90
17619;DHT22;8928;51.678;6.074;2024-01-25T00:54:46;5.70;99.90
17619;DHT22;8928;51.678;6.074;2024-01-25T00:57:33;5.50;99.90
17619;DHT22;8928;51.678;6.074;2024-01-25T01:00:21;5.40;99.90
17619;DHT22;8928;51.678;6.074;2024-01-25T01:03:09;5.40;99.90
17619;DHT22;8928;51.678;6.074;2024-01-25T01:05:57;5.40;99.90
17619;DHT22;8928;51.678;6.074;2024-01-25T01:08:46;5.50;99.90
17619;DHT22;8928;51.678;6.074;2024-01-25T01:11:33;5.40;99.90
17619;DHT22;8928;51.678;6.074;2024-01-25T01:14:21;5.30;99.90
17619;DHT22;8928;51.678;6.074;2024-01-25T01:17:08;5.30;99.90
17619;DHT22;8928;51.678;6.074;2024-01-25T01:19:55;5.20;99.90
17619;DHT22;8928;51.678;6.074;2024-01-25T01:22:42;5.30;99.90
17619;DHT22;8928;51.678;6.074;2024-01-25T01:25:30;5.40;99.90
17619;DHT22;8928;51.678;6.074;2024-01-25T01:28:17;5.40;99.90
17619;DHT22;8928;51.678;6.074;2024-01-25T01:31:04;5.40;99.90
17619;DHT22;8928;51.678;6.074;2024-01-25T01:33:51;5.30;99.90
17619;DHT22;8928;51.678;6.074;2024-01-25T01:36:38;5.20;99.90
17619;DHT22;8928;51.678;6.074;2024-01-25T01:39:25;5.20;99.90
17619;DHT22;8928;51.678;6.074;2024-01-25T01:42:14;5.20;99.90
17619;DHT22;8928;51.678;6.074;2024-01-25T01:45:01;5.10;99.90
17619;DHT22;8928;51.678;6.074;2024-01-25T01:47:48;5.00;99.90
17619;DHT22;8928;51.678;6.074;2024-01-25T01:50:35;5.10;99.90
17619;DHT22;8928;51.678;6.074;2024-01-25T01:53:22;4.90;99.90
17619;DHT22;8928;51.678;6.074;2024-01-25T01:56:09;4.80;99.90
17619;DHT22;8928;51.678;6.074;2024-01-25T01:58:59;4.80;99.90
17619;DHT22;8928;51.678;6.074;2024-01-25T02:01:46;4.70;99.90
17619;DHT22;8928;51.678;6.074;2024-01-25T02:04:33;4.50;99.90
17619;DHT22;8928;51.678;6.074;2024-01-25T02:07:20;4.50;99.90
17619;DHT22;8928;51.678;6.074;2024-01-25T02:10:08;4.60;99.90
17619;DHT22;8928;51.678;6.074;2024-01-25T02:12:55;4.60;99.90
17619;DHT22;8928;51.678;6.074;2024-01-25T02:15:44;4.50;99.90
17619;DHT22;8928;51.678;6.074;2024-01-25T02:18:31;4.50;99.90
17619;DHT22;8928;51.678;6.074;2024-01-25T02:21:18;4.60;99.90
17619;DHT22;8928;51.678;6.074;2024-01-25T02:24:07;4.40;99.90
17619;DHT22;8928;51.678;6.074;2024-01-25T02:26:54;4.40;99.90
17619;DHT22;8928;51.678;6.074;2024-01-25T02:29:41;4.30;99.90
17619;DHT22;8928;51.678;6.074;2024-01-25T02:32:28;4.20;99.90
17619;DHT22;8928;51.678;6.074;2024-01-25T02:35:15;4.10;99.90
17619;DHT22;8928;51.678;6.074;2024-01-25T02:38:03;4.00;99.90
17619;DHT22;8928;51.678;6.074;2024-01-25T02:40:51;4.00;99.90
17619;DHT22;8928;51.678;6.074;2024-01-25T02:43:39;3.80;99.90
17619;DHT22;8928;51.678;6.074;2024-01-25T02:46:26;3.80;99.90
17619;DHT22;8928;51.678;6.074;2024-01-25T02:49:13;3.70;99.90
17619;DHT22;8928;51.678;6.074;2024-01-25T02:52:00;3.60;99.90
17619;DHT22;8928;51.678;6.074;2024-01-25T02:54:48;3.50;99.90
17619;DHT22;8928;51.678;6.074;2024-01-25T02:57:37;3.30;99.90
17619;DHT22;8928;51.678;6.074;2024-01-25T03:00:24;3.10;99.90
17619;DHT22;8928;51.678;6.074;2024-01-25T03:03:11;3.00;99.90
17619;DHT22;8928;51.678;6.074;2024-01-25T03:05:58;2.90;99.90
17619;DHT22;8928;51.678;6.074;2024-01-25T03:08:45;2.80;99.90
17619;DHT22;8928;51.678;6.074;2024-01-25T03:11:32;2.80;99.90
17619;DHT22;8928;51.678;6.074;2024-01-25T03:14:20;2.80;99.90
17619;DHT22;8928;51.678;6.074;2024-01-25T03:17:07;2.70;99.90
17619;DHT22;8928;51.678;6.074;2024-01-25T03:19:54;2.80;99.90
17619;DHT22;8928;51.678;6.074;2024-01-25T03:22:41;2.60;99.90
17619;DHT22;8928;51.678;6.074;2024-01-25T03:25:28;2.50;99.90
17619;DHT22;8928;51.678;6.074;2024-01-25T03:28:17;2.50;99.90
17619;DHT22;8928;51.678;6.074;2024-01-25T03:31:05;2.40;99.90
17619;DHT22;8928;51.678;6.074;2024-01-25T03:33:52;2.40;99.90
17619;DHT22;8928;51.678;6.074;2024-01-25T03:36:41;2.50;99.90
17619;DHT22;8928;51.678;6.074;2024-01-25T03:39:28;2.60;99.90
17619;DHT22;8928;51.678;6.074;2024-01-25T03:42:15;2.60;99.90
17619;DHT22;8928;51.678;6.074;2024-01-25T03:45:02;2.50;99.90
17619;DHT22;8928;51.678;6.074;2024-01-25T03:47:51;2.60;99.90
17619;DHT22;8928;51.678;6.074;2024-01-25T03:50:38;2.60;99.90
17619;DHT22;8928;51.678;6.074;2024-01-25T03:53:25;2.50;99.90
17619;DHT22;8928;51.678;6.074;2024-01-25T03:56:12;2.50;99.90
17619;DHT22;8928;51.678;6.074;2024-01-25T03:58:59;2.40;99.90
17619;DHT22;8928;51.678;6.074;2024-01-25T04:01:47;2.70;99.90
17619;DHT22;8928;51.678;6.074;2024-01-25T04:04:35;2.70;99.90
17619;DHT22;8928;51.678;6.074;2024-01-25T04:07:22;2.60;99.90
17619;DHT22;8928;51.678;6.074;2024-01-25T04:10:09;2.70;99.90
17619;DHT22;8928;51.678;6.074;2024-01-25T04:12:56;2.60;99.90
17619;DHT22;8928;51.678;6.074;2024-01-25T04:15:43;2.60;99.90
17619;DHT22;8928;51.678;6.074;2024-01-25T04:18:30;2.50;99.90
17619;DHT22;8928;51.678;6.074;2024-01-25T04:21:19;2.40;99.90
17619;DHT22;8928;51.678;6.074;2024-01-25T04:24:06;2.40;99.90
17619;DHT22;8928;51.678;6.074;2024-01-25T04:26:53;2.40;99.90
17619;DHT22;8928;51.678;6.074;2024-01-25T04:29:40;2.40;99.90
17619;DHT22;8928;51.678;6.074;2024-01-25T04:32:28;2.50;99.90
17619;DHT22;8928;51.678;6.074;2024-01-25T04:35:15;2.80;99.90
17619;DHT22;8928;51.678;6.074;2024-01-25T04:38:03;2.80;99.90
17619;DHT22;8928;51.678;6.074;2024-01-25T04:40:50;2.70;99.90
17619;DHT22;8928;51.678;6.074;2024-01-25T04:43:37;2.50;99.90
17619;DHT22;8928;51.678;6.074;2024-01-25T04:46:25;2.40;99.90
17619;DHT22;8928;51.678;6.074;2024-01-25T04:49:12;2.30;99.90
17619;DHT22;8928;51.678;6.074;2024-01-25T04:51:59;2.40;99.90
17619;DHT22;8928;51.678;6.074;2024-01-25T04:54:47;2.20;99.90
17619;DHT22;8928;51.678;6.074;2024-01-25T04:57:34;2.10;99.90
17619;DHT22;8928;51.678;6.074;2024-01-25T05:00:22;2.10;99.90
17619;DHT22;8928;51.678;6.074;2024-01-25T05:03:09;2.00;99.90
17619;DHT22;8928;51.678;6.074;2024-01-25T05:05:56;1.90;99.90
17619;DHT22;8928;51.678;6.074;2024-01-25T05:08:43;1.70;99.90
17619;DHT22;8928;51.678;6.074;2024-01-25T05:11:32;1.60;99.90
17619;DHT22;8928;51.678;6.074;2024-01-25T05:14:19;1.50;99.90
17619;DHT22;8928;51.678;6.074;2024-01-25T05:17:06;1.30;99.90
17619;DHT22;8928;51.678;6.074;2024-01-25T05:19:53;1.30;99.90
17619;DHT22;8928;51.678;6.074;2024-01-25T05:22:40;1.20;99.90
17619;DHT22;8928;51.678;6.074;2024-01-25T05:25:27;1.10;99.90
17619;DHT22;8928;51.678;6.074;2024-01-25T05:28:16;1.10;99.90
17619;DHT22;8928;51.678;6.074;2024-01-25T05:31:03;1.00;99.90
17619;DHT22;8928;51.678;6.074;2024-01-25T05:33:50;1.00;99.90
17619;DHT22;8928;51.678;6.074;2024-01-25T05:36:37;1.00;99.90
17619;DHT22;8928;51.678;6.074;2024-01-25T05:39:24;0.90;99.90
17619;DHT22;8928;51.678;6.074;2024-01-25T05:42:11;0.90;99.90
17619;DHT22;8928;51.678;6.074;2024-01-25T05:45:00;0.90;99.90
17619;DHT22;8928;51.678;6.074;2024-01-25T05:47:47;0.90;99.90
17619;DHT22;8928;51.678;6.074;2024-01-25T05:50:34;0.80;99.90
17619;DHT22;8928;51.678;6.074;2024-01-25T05:53:21;0.80;99.90
17619;DHT22;8928;51.678;6.074;2024-01-25T05:56:08;0.80;99.90
17619;DHT22;8928;51.678;6.074;2024-01-25T05:58:55;0.80;99.90
17619;DHT22;8928;51.678;6.074;2024-01-25T06:01:43;0.70;99.90
17619;DHT22;8928;51.678;6.074;2024-01-25T06:04:30;0.70;99.90
17619;DHT22;8928;51.678;6.074;2024-01-25T06:07:17;0.70;99.90
17619;DHT22;8928;51.678;6.074;2024-01-25T06:10:07;0.70;99.90
17619;DHT22;8928;51.678;6.074;2024-01-25T06:12:54;0.60;99.90
17619;DHT22;8928;51.678;6.074;2024-01-25T06:15:41;0.60;99.90
17619;DHT22;8928;51.678;6.074;2024-01-25T06:18:29;0.60;99.90
17619;DHT22;8928;51.678;6.074;2024-01-25T06:21:16;0.60;99.90
17619;DHT22;8928;51.678;6.074;2024-01-25T06:24:04;0.60;99.90
17619;DHT22;8928;51.678;6.074;2024-01-25T06:26:52;0.60;99.90
17619;DHT22;8928;51.678;6.074;2024-01-25T06:29:39;0.60;99.90
17619;DHT22;8928;51.678;6.074;2024-01-25T06:32:26;0.50;99.90
17619;DHT22;8928;51.678;6.074;2024-01-25T06:35:15;0.60;99.90
17619;DHT22;8928;51.678;6.074;2024-01-25T06:38:03;0.40;99.90
17619;DHT22;8928;51.678;6.074;2024-01-25T06:40:50;0.40;99.90
17619;DHT22;8928;51.678;6.074;2024-01-25T06:43:37;0.30;99.90
17619;DHT22;8928;51.678;6.074;2024-01-25T06:46:25;0.30;99.90
17619;DHT22;8928;51.678;6.074;2024-01-25T06:49:12;0.20;99.90
17619;DHT22;8928;51.678;6.074;2024-01-25T06:52:01;0.20;99.90
17619;DHT22;8928;51.678;6.074;2024-01-25T06:54:49;0.20;99.90
17619;DHT22;8928;51.678;6.074;2024-01-25T06:57:36;0.30;99.90
17619;DHT22;8928;51.678;6.074;2024-01-25T07:00:24;0.30;99.90
17619;DHT22;8928;51.678;6.074;2024-01-25T07:03:10;0.30;99.90
17619;DHT22;8928;51.678;6.074;2024-01-25T07:05:58;0.20;99.90
17619;DHT22;8928;51.678;6.074;2024-01-25T07:08:46;0.20;99.90
17619;DHT22;8928;51.678;6.074;2024-01-25T07:11:33;0.20;99.90
17619;DHT22;8928;51.678;6.074;2024-01-25T07:14:20;0.20;99.90
17619;DHT22;8928;51.678;6.074;2024-01-25T07:17:07;0.20;99.90
17619;DHT22;8928;51.678;6.074;2024-01-25T07:19:54;0.20;99.90
17619;DHT22;8928;51.678;6.074;2024-01-25T07:22:41;0.20;99.90
17619;DHT22;8928;51.678;6.074;2024-01-25T07:25:30;0.20;99.90
17619;DHT22;8928;51.678;6.074;2024-01-25T07:28:18;0.30;99.90
17619;DHT22;8928;51.678;6.074;2024-01-25T07:31:05;0.30;99.90
17619;DHT22;8928;51.678;6.074;2024-01-25T07:33:53;0.30;99.90
17619;DHT22;8928;51.678;6.074;2024-01-25T07:36:40;0.30;99.90
17619;DHT22;8928;51.678;6.074;2024-01-25T07:39:28;0.30;99.90
17619;DHT22;8928;51.678;6.074;2024-01-25T07:42:16;0.20;99.90
17619;DHT22;8928;51.678;6.074;2024-01-25T07:45:04;0.20;99.90
17619;DHT22;8928;51.678;6.074;2024-01-25T07:47:51;0.30;99.90
17619;DHT22;8928;51.678;6.074;2024-01-25T07:50:38;0.40;99.90
17619;DHT22;8928;51.678;6.074;2024-01-25T07:53:25;0.40;99.90
17619;DHT22;8928;51.678;6.074;2024-01-25T07:56:12;0.40;99.90
17619;DHT22;8928;51.678;6.074;2024-01-25T07:59:01;0.60;99.90
17619;DHT22;8928;51.678;6.074;2024-01-25T08:01:48;0.70;99.90
17619;DHT22;8928;51.678;6.074;2024-01-25T08:04:35;0.80;99.90
17619;DHT22;8928;51.678;6.074;2024-01-25T08:07:22;0.90;99.90
17619;DHT22;8928;51.678;6.074;2024-01-25T08:10:09;1.00;99.90
17619;DHT22;8928;51.678;6.074;2024-01-25T08:12:56;1.10;99.90
17619;DHT22;8928;51.678;6.074;2024-01-25T08:15:46;1.20;99.90
17619;DHT22;8928;51.678;6.074;2024-01-25T08:18:33;1.40;99.90
17619;DHT22;8928;51.678;6.074;2024-01-25T08:21:20;1.40;99.90
17619;DHT22;8928;51.678;6.074;2024-01-25T08:24:07;1.50;99.90
17619;DHT22;8928;51.678;6.074;2024-01-25T08:26:54;1.60;99.90
17619;DHT22;8928;51.678;6.074;2024-01-25T08:29:41;1.80;99.90
17619;DHT22;8928;51.678;6.074;2024-01-25T08:32:29;1.90;99.90
17619;DHT22;8928;51.678;6.074;2024-01-25T08:35:16;2.00;99.90
17619;DHT22;8928;51.678;6.074;2024-01-25T08:38:04;2.10;99.90
17619;DHT22;8928;51.678;6.074;2024-01-25T08:40:51;2.20;99.90
17619;DHT22;8928;51.678;6.074;2024-01-25T08:43:38;2.30;99.90
17619;DHT22;8928;51.678;6.074;2024-01-25T08:46:26;2.40;99.90
17619;DHT22;8928;51.678;6.074;2024-01-25T08:49:14;2.40;99.90
17619;DHT22;8928;51.678;6.074;2024-01-25T08:52:01;2.50;99.90
17619;DHT22;8928;51.678;6.074;2024-01-25T08:54:48;2.50;99.90
17619;DHT22;8928;51.678;6.074;2024-01-25T08:57:35;2.60;99.90
17619;DHT22;8928;51.678;6.074;2024-01-25T09:00:23;2.70;99.90
17619;DHT22;8928;51.678;6.074;2024-01-25T09:03:10;2.80;99.90
17619;DHT22;8928;51.678;6.074;2024-01-25T09:05:58;2.90;99.90
17619;DHT22;8928;51.678;6.074;2024-01-25T09:08:50;3.10;99.90
17619;DHT22;8928;51.678;6.074;2024-01-25T09:11:37;3.20;99.90
17619;DHT22;8928;51.678;6.074;2024-01-25T09:14:24;3.40;99.90
17619;DHT22;8928;51.678;6.074;2024-01-25T09:17:11;3.50;99.90
17619;DHT22;8928;51.678;6.074;2024-01-25T09:19:59;3.70;99.90
17619;DHT22;8928;51.678;6.074;2024-01-25T09:22:48;3.80;99.90
17619;DHT22;8928;51.678;6.074;2024-01-25T09:25:35;4.10;99.90
17619;DHT22;8928;51.678;6.074;2024-01-25T09:28:22;4.30;99.90
17619;DHT22;8928;51.678;6.074;2024-01-25T09:31:09;4.40;99.90
17619;DHT22;8928;51.678;6.074;2024-01-25T09:33:56;4.50;99.90
17619;DHT22;8928;51.678;6.074;2024-01-25T09:36:43;4.80;99.90
17619;DHT22;8928;51.678;6.074;2024-01-25T09:39:32;5.00;99.90
17619;DHT22;8928;51.678;6.074;2024-01-25T09:42:19;5.30;99.90
17619;DHT22;8928;51.678;6.074;2024-01-25T09:45:07;5.50;99.90
17619;DHT22;8928;51.678;6.074;2024-01-25T09:47:55;5.70;99.90
17619;DHT22;8928;51.678;6.074;2024-01-25T09:50:42;5.80;99.90
17619;DHT22;8928;51.678;6.074;2024-01-25T09:53:31;5.90;99.90
17619;DHT22;8928;51.678;6.074;2024-01-25T09:56:21;5.90;99.90
17619;DHT22;8928;51.678;6.074;2024-01-25T09:59:09;6.10;99.90
17619;DHT22;8928;51.678;6.074;2024-01-25T10:01:56;6.10;99.90
17619;DHT22;8928;51.678;6.074;2024-01-25T10:04:49;6.10;99.90
17619;DHT22;8928;51.678;6.074;2024-01-25T10:07:37;6.10;99.90
17619;DHT22;8928;51.678;6.074;2024-01-25T10:10:24;6.10;99.90
17619;DHT22;8928;51.678;6.074;2024-01-25T10:13:13;6.20;99.90
17619;DHT22;8928;51.678;6.074;2024-01-25T10:16:00;6.30;99.90
17619;DHT22;8928;51.678;6.074;2024-01-25T10:18:47;6.40;99.90
17619;DHT22;8928;51.678;6.074;2024-01-25T10:21:35;6.50;99.90
17619;DHT22;8928;51.678;6.074;2024-01-25T10:24:23;6.70;99.90
17619;DHT22;8928;51.678;6.074;2024-01-25T10:27:10;6.80;99.90
17619;DHT22;8928;51.678;6.074;2024-01-25T10:29:59;6.90;99.90
17619;DHT22;8928;51.678;6.074;2024-01-25T10:32:46;7.00;99.90
17619;DHT22;8928;51.678;6.074;2024-01-25T10:35:34;7.20;99.90
17619;DHT22;8928;51.678;6.074;2024-01-25T10:38:23;7.20;99.90
17619;DHT22;8928;51.678;6.074;2024-01-25T10:41:11;7.30;99.90
17619;DHT22;8928;51.678;6.074;2024-01-25T10:44:00;7.40;99.90
17619;DHT22;8928;51.678;6.074;2024-01-25T10:46:49;7.50;99.90
17619;DHT22;8928;51.678;6.074;2024-01-25T10:49:36;7.60;99.90
17619;DHT22;8928;51.678;6.074;2024-01-25T10:52:23;7.70;99.90
17619;DHT22;8928;51.678;6.074;2024-01-25T10:55:11;7.90;99.90
17619;DHT22;8928;51.678;6.074;2024-01-25T10:57:59;8.00;99.90
17619;DHT22;8928;51.678;6.074;2024-01-25T11:00:51;8.20;99.90
17619;DHT22;8928;51.678;6.074;2024-01-25T11:03:40;8.30;99.90
17619;DHT22;8928;51.678;6.074;2024-01-25T11:06:28;8.40;99.90
17619;DHT22;8928;51.678;6.074;2024-01-25T11:09:17;8.60;99.90
17619;DHT22;8928;51.678;6.074;2024-01-25T11:12:11;8.70;99.90
17619;DHT22;8928;51.678;6.074;2024-01-25T11:15:06;8.70;99.90
17619;DHT22;8928;51.678;6.074;2024-01-25T11:17:56;8.70;99.90
17619;DHT22;8928;51.678;6.074;2024-01-25T11:20:46;8.80;99.90
17619;DHT22;8928;51.678;6.074;2024-01-25T11:23:34;8.90;99.90
17619;DHT22;8928;51.678;6.074;2024-01-25T11:26:24;9.00;99.90
17619;DHT22;8928;51.678;6.074;2024-01-25T11:29:13;9.10;99.90
17619;DHT22;8928;51.678;6.074;2024-01-25T11:32:03;9.20;99.90
17619;DHT22;8928;51.678;6.074;2024-01-25T11:34:58;9.20;99.90
17619;DHT22;8928;51.678;6.074;2024-01-25T11:37:47;9.10;99.90
17619;DHT22;8928;51.678;6.074;2024-01-25T11:40:34;8.90;99.90
17619;DHT22;8928;51.678;6.074;2024-01-25T11:43:21;8.70;99.90
17619;DHT22;8928;51.678;6.074;2024-01-25T11:46:09;8.50;99.90
17619;DHT22;8928;51.678;6.074;2024-01-25T11:48:57;8.40;99.90
17619;DHT22;8928;51.678;6.074;2024-01-25T11:51:44;8.40;99.90
17619;DHT22;8928;51.678;6.074;2024-01-25T11:54:33;8.40;99.90
17619;DHT22;8928;51.678;6.074;2024-01-25T11:57:20;8.40;99.90
17619;DHT22;8928;51.678;6.074;2024-01-25T12:00:09;8.40;99.90
17619;DHT22;8928;51.678;6.074;2024-01-25T12:02:56;8.40;99.90
17619;DHT22;8928;51.678;6.074;2024-01-25T12:05:44;8.40;99.90
17619;DHT22;8928;51.678;6.074;2024-01-25T12:08:32;8.30;99.90
17619;DHT22;8928;51.678;6.074;2024-01-25T12:11:20;8.40;99.90
17619;DHT22;8928;51.678;6.074;2024-01-25T12:14:09;8.50;99.90
17619;DHT22;8928;51.678;6.074;2024-01-25T12:16:56;8.60;99.90
17619;DHT22;8928;51.678;6.074;2024-01-25T12:19:43;8.70;99.90
17619;DHT22;8928;51.678;6.074;2024-01-25T12:22:30;8.80;99.90
17619;DHT22;8928;51.678;6.074;2024-01-25T12:25:17;8.90;99.90
17619;DHT22;8928;51.678;6.074;2024-01-25T12:28:06;9.00;99.90
17619;DHT22;8928;51.678;6.074;2024-01-25T12:30:53;8.90;99.90
17619;DHT22;8928;51.678;6.074;2024-01-25T12:33:41;9.00;99.90
17619;DHT22;8928;51.678;6.074;2024-01-25T12:36:28;9.00;99.90
17619;DHT22;8928;51.678;6.074;2024-01-25T12:39:15;9.00;99.90
17619;DHT22;8928;51.678;6.074;2024-01-25T12:42:03;9.10;99.90
17619;DHT22;8928;51.678;6.074;2024-01-25T12:44:53;9.10;99.90
17619;DHT22;8928;51.678;6.074;2024-01-25T12:47:40;9.10;99.90
17619;DHT22;8928;51.678;6.074;2024-01-25T12:50:27;9.10;99.90
17619;DHT22;8928;51.678;6.074;2024-01-25T12:53:14;9.00;99.90
17619;DHT22;8928;51.678;6.074;2024-01-25T12:56:01;8.90;99.90
17619;DHT22;8928;51.678;6.074;2024-01-25T12:58:48;8.70;99.90
17619;DHT22;8928;51.678;6.074;2024-01-25T13:01:36;8.60;99.90
17619;DHT22;8928;51.678;6.074;2024-01-25T13:04:24;8.50;99.90
17619;DHT22;8928;51.678;6.074;2024-01-25T13:07:11;8.30;99.90
17619;DHT22;8928;51.678;6.074;2024-01-25T13:09:58;8.20;99.90
17619;DHT22;8928;51.678;6.074;2024-01-25T13:12:45;8.20;99.90
17619;DHT22;8928;51.678;6.074;2024-01-25T13:15:32;8.10;99.90
17619;DHT22;8928;51.678;6.074;2024-01-25T13:18:20;8.10;99.90
17619;DHT22;8928;51.678;6.074;2024-01-25T13:21:07;8.00;99.90
17619;DHT22;8928;51.678;6.074;2024-01-25T13:23:54;8.00;99.90
17619;DHT22;8928;51.678;6.074;2024-01-25T13:26:41;8.00;99.90
17619;DHT22;8928;51.678;6.074;2024-01-25T13:29:28;8.00;99.90
17619;DHT22;8928;51.678;6.074;2024-01-25T13:32:15;8.10;99.90
17619;DHT22;8928;51.678;6.074;2024-01-25T13:35:04;8.10;99.90
17619;DHT22;8928;51.678;6.074;2024-01-25T13:37:52;8.10;99.90
17619;DHT22;8928;51.678;6.074;2024-01-25T13:40:39;8.10;99.90
17619;DHT22;8928;51.678;6.074;2024-01-25T13:43:26;8.10;99.90
17619;DHT22;8928;51.678;6.074;2024-01-25T13:46:13;8.10;99.90
17619;DHT22;8928;51.678;6.074;2024-01-25T13:49:00;8.10;99.90
17619;DHT22;8928;51.678;6.074;2024-01-25T13:51:49;8.10;99.90
17619;DHT22;8928;51.678;6.074;2024-01-25T13:54:36;8.10;99.90
17619;DHT22;8928;51.678;6.074;2024-01-25T13:57:23;8.00;99.90
17619;DHT22;8928;51.678;6.074;2024-01-25T14:00:11;8.00;99.90
17619;DHT22;8928;51.678;6.074;2024-01-25T14:02:58;8.00;99.90
17619;DHT22;8928;51.678;6.074;2024-01-25T14:05:45;8.00;99.90
17619;DHT22;8928;51.678;6.074;2024-01-25T14:08:34;8.00;99.90
17619;DHT22;8928;51.678;6.074;2024-01-25T14:11:21;8.00;99.90
17619;DHT22;8928;51.678;6.074;2024-01-25T14:14:08;7.90;99.90
17619;DHT22;8928;51.678;6.074;2024-01-25T14:16:55;7.90;99.90
17619;DHT22;8928;51.678;6.074;2024-01-25T14:19:42;7.80;99.90
17619;DHT22;8928;51.678;6.074;2024-01-25T14:22:29;7.80;99.90
17619;DHT22;8928;51.678;6.074;2024-01-25T14:25:17;7.70;99.90
17619;DHT22;8928;51.678;6.074;2024-01-25T14:28:04;7.70;99.90
17619;DHT22;8928;51.678;6.074;2024-01-25T14:30:51;7.70;99.90
17619;DHT22;8928;51.678;6.074;2024-01-25T14:33:38;7.60;99.90
17619;DHT22;8928;51.678;6.074;2024-01-25T14:36:26;7.60;99.90
17619;DHT22;8928;51.678;6.074;2024-01-25T14:39:13;7.60;99.90
17619;DHT22;8928;51.678;6.074;2024-01-25T14:42:01;7.60;99.90
17619;DHT22;8928;51.678;6.074;2024-01-25T14:44:48;7.60;99.90
17619;DHT22;8928;51.678;6.074;2024-01-25T14:47:35;7.60;99.90
17619;DHT22;8928;51.678;6.074;2024-01-25T14:50:23;7.60;99.90
17619;DHT22;8928;51.678;6.074;2024-01-25T14:53:10;7.60;99.90
17619;DHT22;8928;51.678;6.074;2024-01-25T14:55:57;7.60;99.90
17619;DHT22;8928;51.678;6.074;2024-01-25T14:58:45;7.50;99.90
17619;DHT22;8928;51.678;6.074;2024-01-25T15:01:32;7.50;99.90
17619;DHT22;8928;51.678;6.074;2024-01-25T15:04:19;7.60;99.90
17619;DHT22;8928;51.678;6.074;2024-01-25T15:07:06;7.60;99.90
17619;DHT22;8928;51.678;6.074;2024-01-25T15:09:53;7.60;99.90
17619;DHT22;8928;51.678;6.074;2024-01-25T15:12:40;7.60;99.90
17619;DHT22;8928;51.678;6.074;2024-01-25T15:15:29;7.60;99.90
17619;DHT22;8928;51.678;6.074;2024-01-25T15:18:16;7.50;99.90
17619;DHT22;8928;51.678;6.074;2024-01-25T15:21:04;7.50;99.90
17619;DHT22;8928;51.678;6.074;2024-01-25T15:23:51;7.50;99.90
17619;DHT22;8928;51.678;6.074;2024-01-25T15:26:39;7.50;99.90
17619;DHT22;8928;51.678;6.074;2024-01-25T15:29:27;7.50;99.90
17619;DHT22;8928;51.678;6.074;2024-01-25T15:32:15;7.40;99.90
17619;DHT22;8928;51.678;6.074;2024-01-25T15:35:02;7.40;99.90
17619;DHT22;8928;51.678;6.074;2024-01-25T15:37:50;7.40;99.90
17619;DHT22;8928;51.678;6.074;2024-01-25T15:40:37;7.40;99.90
17619;DHT22;8928;51.678;6.074;2024-01-25T15:43:24;7.30;99.90
17619;DHT22;8928;51.678;6.074;2024-01-25T15:46:11;7.30;99.90
17619;DHT22;8928;51.678;6.074;2024-01-25T15:48:59;7.30;99.90
17619;DHT22;8928;51.678;6.074;2024-01-25T15:51:47;7.30;99.90
17619;DHT22;8928;51.678;6.074;2024-01-25T15:54:34;7.30;99.90
17619;DHT22;8928;51.678;6.074;2024-01-25T15:57:21;7.30;99.90
17619;DHT22;8928;51.678;6.074;2024-01-25T16:00:08;7.20;99.90
17619;DHT22;8928;51.678;6.074;2024-01-25T16:02:56;7.20;99.90
17619;DHT22;8928;51.678;6.074;2024-01-25T16:05:44;7.20;99.90
17619;DHT22;8928;51.678;6.074;2024-01-25T16:08:31;7.20;99.90
17619;DHT22;8928;51.678;6.074;2024-01-25T16:11:18;7.20;99.90
17619;DHT22;8928;51.678;6.074;2024-01-25T16:14:05;7.20;99.90
17619;DHT22;8928;51.678;6.074;2024-01-25T16:16:52;7.20;99.90
17619;DHT22;8928;51.678;6.074;2024-01-25T16:19:39;7.20;99.90
17619;DHT22;8928;51.678;6.074;2024-01-25T16:22:28;7.10;99.90
17619;DHT22;8928;51.678;6.074;2024-01-25T16:25:15;7.10;99.90
17619;DHT22;8928;51.678;6.074;2024-01-25T16:28:02;7.10;99.90
17619;DHT22;8928;51.678;6.074;2024-01-25T16:51:33;7.10;99.90
17619;DHT22;8928;51.678;6.074;2024-01-25T16:54:20;7.10;99.90
17619;DHT22;8928;51.678;6.074;2024-01-25T16:57:07;7.10;99.90
17619;DHT22;8928;51.678;6.074;2024-01-25T16:59:54;7.10;99.90
17619;DHT22;8928;51.678;6.074;2024-01-25T17:02:41;7.10;99.90
17619;DHT22;8928;51.678;6.074;2024-01-25T17:05:28;7.10;99.90
17619;DHT22;8928;51.678;6.074;2024-01-25T17:08:17;7.10;99.90
17619;DHT22;8928;51.678;6.074;2024-01-25T17:11:04;7.10;99.90
17619;DHT22;8928;51.678;6.074;2024-01-25T17:13:51;7.20;99.90
17619;DHT22;8928;51.678;6.074;2024-01-25T17:16:38;7.20;99.90
17619;DHT22;8928;51.678;6.074;2024-01-25T17:19:25;7.20;99.90
17619;DHT22;8928;51.678;6.074;2024-01-25T17:22:13;7.20;99.90
17619;DHT22;8928;51.678;6.074;2024-01-25T17:25:01;7.20;99.90
17619;DHT22;8928;51.678;6.074;2024-01-25T17:27:49;7.30;99.90
17619;DHT22;8928;51.678;6.074;2024-01-25T17:30:36;7.30;99.90
17619;DHT22;8928;51.678;6.074;2024-01-25T17:33:24;7.30;99.90
17619;DHT22;8928;51.678;6.074;2024-01-25T17:36:11;7.30;99.90
17619;DHT22;8928;51.678;6.074;2024-01-25T17:38:58;7.40;99.90
17619;DHT22;8928;51.678;6.074;2024-01-25T17:41:47;7.40;99.90
17619;DHT22;8928;51.678;6.074;2024-01-25T17:44:34;7.40;99.90
17619;DHT22;8928;51.678;6.074;2024-01-25T17:47:21;7.50;99.90
17619;DHT22;8928;51.678;6.074;2024-01-25T17:50:08;7.50;99.90
17619;DHT22;8928;51.678;6.074;2024-01-25T17:52:55;7.50;99.90
17619;DHT22;8928;51.678;6.074;2024-01-25T17:55:43;7.60;99.90
17619;DHT22;8928;51.678;6.074;2024-01-25T17:58:31;7.60;99.90
17619;DHT22;8928;51.678;6.074;2024-01-25T18:01:18;7.70;99.90
17619;DHT22;8928;51.678;6.074;2024-01-25T18:04:05;7.70;99.90
17619;DHT22;8928;51.678;6.074;2024-01-25T18:06:52;7.70;99.90
17619;DHT22;8928;51.678;6.074;2024-01-25T18:09:39;7.70;99.90
17619;DHT22;8928;51.678;6.074;2024-01-25T18:12:26;7.70;99.90
17619;DHT22;8928;51.678;6.074;2024-01-25T18:15:14;7.80;99.90
17619;DHT22;8928;51.678;6.074;2024-01-25T18:18:04;7.80;99.90
17619;DHT22;8928;51.678;6.074;2024-01-25T18:20:51;7.90;99.90
17619;DHT22;8928;51.678;6.074;2024-01-25T18:23:38;7.90;99.90
17619;DHT22;8928;51.678;6.074;2024-01-25T18:26:25;8.00;99.90
17619;DHT22;8928;51.678;6.074;2024-01-25T18:29:12;8.00;99.90
17619;DHT22;8928;51.678;6.074;2024-01-25T18:32:00;8.00;99.90
17619;DHT22;8928;51.678;6.074;2024-01-25T18:34:47;8.00;99.90